Главная страница
METAR-TAF:

METAR-TAF

Аэропорты :

Gamèti, Северо-Западные Территории, Канада

широта: 64-06-58N, долгота: 117-18-35W, высота над уровнем моря: 221 м

Текущие метеонаблюдения

Эта сводка был подготовлена 12 часа и 25 минут назад, в 00:00 UTC
Ветер 13 Узел от юго-восточный с порывами до 19 Узел
Температура -4°C
Влажность 80%
Давление 1020 hPa
Видимость: 24.1 км
Рассеянная облачность на высоте 16000 фута

METAR: CYRA 200000Z 14013G19KT 15SM BKN160 M04/M07 A3011 RMK AC7 -2.8/-7.4/0/0 SNW CVR/NIL LAST STFD OBS/NEXT 201500 UTC SLP217

Время: 06:25 (12:25 UTC)

Прогноз

Эта сводка был подготовлена 17 часа и 47 минут назад, в 18:38 UTC
Прогноз действительный с 19-го 19 UTC до 19-го 24 UTC
Ветер 8 Узел от юго-юго-восточный
Видимость: 10 км
Рассеянная облачность на высоте 1200 фута
временами
С 19-го 19 UTC до 19-го 24 UTC
Отдельные облака на высоте 1200 фута

TAF: CYRA 191838Z 1919/1924 16008KT P6SM BKN012 TEMPO 1919/1924 SCT012 RMK NXT FCST WILL BE ISSUED AT 201645Z

Метеонаблюдения и прогнозы для более 4000 аэропортов (сводки METAR и TAF).

Имеющиеся станции представлены на карте желтыми и красными точками.

Чтобы увидеть название станции, наведите на нее мышь.

Затем щелкните, чтобы увидеть метеонаблюдения и метеопрогнозы.

Управление картой: чтобы увеличить масштаб, щелкните зеленые кнопки с черным крестиком; чтобы уменьшить масштаб, щелкните зеленую кнопку с тире; для просмотра соседних карт щелкайте зеленые стрелки.


METAR-TAF: